Terminal Aerodrome Forecast
Issued by NWS

Home | Current Version | Previous Version | Text Only | Print | Product List | Glossary On
Versions: 1 2 3 4 5 6 7 8 9 10 11 12 13 14 15 16 17 18 19 20 21 22 23 24 25 26 27 28 29 30 31 32
129
FTUS45 KCYS 261721
TAFAIA
TAF
KAIA 261721Z 2618/2718 VRB04KT P6SM SCT250
     FM262000 08010KT P6SM VCTS SCT060CB BKN110
      TEMPO 2621/2701 4SM -TSRA BKN040CB
     FM270300 02008KT P6SM VCSH BKN080
     FM270900 34008KT P6SM BKN035=

USA.gov is the U.S. government's official web portal to all federal, state and local government web resources and services.